Time;durP1;ratioP1;P1;durP2;ratioP2;P2;SDS_P1;SDS_P2;PMS_P1;PMS_P2;Temp;Humidity;BMP_temperature;BMP_pressure;BME280_temperature;BME280_humidity;BME280_pressure;Samples;Min_cycle;Max_cycle;Signal;HPM_P1;HPM_P2
2021/01/17 00:01:16;;;;;;;9.93;5.30;;;;;;;;;;5091938;28;20489;-74
2021/01/17 00:03:42;;;;;;;11.45;6.13;;;;;;;;;;5093035;28;20110;-74
2021/01/17 00:06:07;;;;;;;9.75;5.75;;;;;;;;;;5092585;28;20125;-74
2021/01/17 00:08:32;;;;;;;9.40;4.97;;;;;;;;;;5091597;28;20067;-74
2021/01/17 00:10:58;;;;;;;10.63;6.30;;;;;;;;;;5092822;28;20042;-75
2021/01/17 00:13:23;;;;;;;8.10;5.80;;;;;;;;;;5091520;28;20036;-74
2021/01/17 00:15:49;;;;;;;8.85;5.72;;;;;;;;;;5093041;28;20148;-74
2021/01/17 00:18:14;;;;;;;9.88;5.72;;;;;;;;;;5098780;28;20069;-74
2021/01/17 00:20:39;;;;;;;10.65;5.45;;;;;;;;;;5111785;28;20031;-75
2021/01/17 00:23:06;;;;;;;8.98;6.22;;;;;;;;;;5112834;28;20192;-74
2021/01/17 00:25:32;;;;;;;9.05;5.45;;;;;;;;;;5093416;28;20123;-74
2021/01/17 00:27:59;;;;;;;7.60;5.45;;;;;;;;;;5094843;28;20024;-74
2021/01/17 00:30:27;;;;;;;8.65;5.72;;;;;;;;;;5095041;28;20601;-74
2021/01/17 00:32:55;;;;;;;11.45;6.43;;;;;;;;;;5095964;28;20482;-74
2021/01/17 00:35:21;;;;;;;8.52;5.45;;;;;;;;;;5095180;28;20040;-75
2021/01/17 00:37:51;;;;;;;11.82;6.18;;;;;;;;;;5095955;28;20027;-75
2021/01/17 00:40:16;;;;;;;8.30;5.50;;;;;;;;;;5096073;28;20050;-74
2021/01/17 00:42:49;;;;;;;9.85;6.00;;;;;;;;;;5095758;28;20127;-74
2021/01/17 00:45:15;;;;;;;8.50;5.97;;;;;;;;;;5094678;28;20081;-74
2021/01/17 00:47:48;;;;;;;11.52;6.32;;;;;;;;;;5096186;28;20371;-74
2021/01/17 00:50:15;;;;;;;10.20;6.65;;;;;;;;;;5095818;28;20032;-74
2021/01/17 00:52:41;;;;;;;10.65;6.10;;;;;;;;;;5094696;28;20046;-75
2021/01/17 00:55:07;;;;;;;11.35;6.85;;;;;;;;;;5094827;28;20106;-74
2021/01/17 00:57:33;;;;;;;10.80;6.68;;;;;;;;;;5095694;28;20039;-74
2021/01/17 00:59:59;;;;;;;9.27;6.32;;;;;;;;;;5094421;28;20398;-74
2021/01/17 01:02:24;;;;;;;11.93;7.35;;;;;;;;;;5094636;28;20020;-74
2021/01/17 01:04:50;;;;;;;12.00;7.20;;;;;;;;;;5095788;28;20110;-75
2021/01/17 01:07:15;;;;;;;11.30;6.70;;;;;;;;;;5095425;28;20036;-74
2021/01/17 01:09:41;;;;;;;14.65;7.85;;;;;;;;;;5095551;28;20423;-74
2021/01/17 01:12:07;;;;;;;11.50;7.65;;;;;;;;;;5095405;28;20024;-74
2021/01/17 01:14:33;;;;;;;10.13;7.30;;;;;;;;;;5094276;28;20032;-74
2021/01/17 01:16:58;;;;;;;10.75;6.95;;;;;;;;;;5095673;28;20040;-74
2021/01/17 01:19:23;;;;;;;11.45;6.57;;;;;;;;;;5095472;28;20044;-74
2021/01/17 01:21:49;;;;;;;12.75;7.88;;;;;;;;;;5095450;28;20126;-74
2021/01/17 01:24:15;;;;;;;17.20;9.68;;;;;;;;;;5095292;28;20051;-74
2021/01/17 01:26:42;;;;;;;13.73;8.00;;;;;;;;;;5095044;28;20469;-73
2021/01/17 01:29:09;;;;;;;13.48;7.72;;;;;;;;;;5095220;28;20035;-74
2021/01/17 01:31:36;;;;;;;12.20;8.52;;;;;;;;;;5094990;28;20027;-73
2021/01/17 01:34:03;;;;;;;12.40;8.00;;;;;;;;;;5093896;28;20032;-73
2021/01/17 01:36:34;;;;;;;14.15;8.07;;;;;;;;;;5095082;28;20043;-74
2021/01/17 01:39:00;;;;;;;14.68;8.32;;;;;;;;;;5094213;28;20097;-73
2021/01/17 01:41:28;;;;;;;13.15;8.98;;;;;;;;;;5095196;28;20035;-73
2021/01/17 01:43:54;;;;;;;12.73;7.90;;;;;;;;;;5094699;28;20031;-73
2021/01/17 01:46:22;;;;;;;13.45;8.73;;;;;;;;;;5095166;28;20066;-73
2021/01/17 01:48:48;;;;;;;11.75;7.88;;;;;;;;;;5093189;28;20079;-74
2021/01/17 01:51:22;;;;;;;13.05;8.65;;;;;;;;;;5094714;28;20038;-73
2021/01/17 01:53:50;;;;;;;13.40;8.73;;;;;;;;;;5094557;28;20040;-73
2021/01/17 01:56:16;;;;;;;11.25;7.63;;;;;;;;;;5094707;28;20127;-74
2021/01/17 01:58:42;;;;;;;15.25;8.57;;;;;;;;;;5094658;28;20032;-73
2021/01/17 02:01:08;;;;;;;15.65;9.18;;;;;;;;;;5094622;28;20044;-73
2021/01/17 02:03:34;;;;;;;14.48;8.85;;;;;;;;;;5094362;28;20031;-74
2021/01/17 02:06:00;;;;;;;15.10;9.52;;;;;;;;;;5094694;28;20114;-74
2021/01/17 02:08:28;;;;;;;14.93;9.65;;;;;;;;;;5094431;28;20390;-73
2021/01/17 02:11:03;;;;;;;16.60;10.85;;;;;;;;;;5093305;28;20406;-74
2021/01/17 02:13:37;;;;;;;17.52;10.30;;;;;;;;;;5094221;28;20485;-76
2021/01/17 02:16:04;;;;;;;16.80;9.82;;;;;;;;;;5094286;28;20405;-74
2021/01/17 02:18:38;;;;;;;17.05;10.35;;;;;;;;;;5094628;28;20036;-73
2021/01/17 02:21:05;;;;;;;16.55;9.95;;;;;;;;;;5094012;28;20040;-73
2021/01/17 02:23:39;;;;;;;16.23;10.23;;;;;;;;;;5094143;28;20100;-74
2021/01/17 02:26:04;;;;;;;14.98;10.10;;;;;;;;;;5094372;28;20036;-73
2021/01/17 02:28:30;;;;;;;19.60;9.77;;;;;;;;;;5093768;28;20405;-74
2021/01/17 02:30:57;;;;;;;17.38;11.20;;;;;;;;;;5094033;28;20379;-74
2021/01/17 02:33:27;;;;;;;16.85;10.60;;;;;;;;;;5094099;28;20036;-73
2021/01/17 02:36:06;;;;;;;16.08;10.52;;;;;;;;;;5093974;28;20032;-74
2021/01/17 02:38:48;;;;;;;18.20;11.25;;;;;;;;;;5092520;28;20035;-74
2021/01/17 02:41:37;;;;;;;19.95;11.30;;;;;;;;;;5093879;28;20040;-74
2021/01/17 02:44:05;;;;;;;24.45;12.02;;;;;;;;;;5093603;28;20036;-74
2021/01/17 02:46:31;;;;;;;19.02;11.45;;;;;;;;;;5093929;28;20040;-74
2021/01/17 02:48:56;;;;;;;20.35;11.90;;;;;;;;;;5093934;28;20093;-74
2021/01/17 02:51:25;;;;;;;17.10;10.90;;;;;;;;;;5093542;28;20036;-74
2021/01/17 02:54:03;;;;;;;18.77;10.57;;;;;;;;;;5093582;28;20509;-74
2021/01/17 02:56:32;;;;;;;18.30;11.02;;;;;;;;;;5093812;28;20398;-74
2021/01/17 02:58:59;;;;;;;20.73;11.93;;;;;;;;;;5093425;28;20039;-74
2021/01/17 03:01:35;;;;;;;16.02;10.10;;;;;;;;;;5093634;28;20048;-74
2021/01/17 03:04:09;;;;;;;19.20;12.00;;;;;;;;;;5093584;28;20560;-74
2021/01/17 03:06:35;;;;;;;19.17;12.10;;;;;;;;;;5093354;28;20077;-74
2021/01/17 03:09:00;;;;;;;19.05;11.48;;;;;;;;;;5093521;28;20455;-74
2021/01/17 03:11:26;;;;;;;18.95;12.48;;;;;;;;;;5093391;28;20118;-74
2021/01/17 03:13:52;;;;;;;20.60;13.05;;;;;;;;;;5091890;28;20040;-74
2021/01/17 03:16:18;;;;;;;20.92;12.45;;;;;;;;;;5092551;28;20038;-73
2021/01/17 03:18:43;;;;;;;18.27;11.38;;;;;;;;;;5092601;28;20040;-74
2021/01/17 03:21:09;;;;;;;17.90;11.18;;;;;;;;;;5092513;28;20115;-73
2021/01/17 03:23:34;;;;;;;19.60;11.05;;;;;;;;;;5092613;28;20067;-74
2021/01/17 03:25:59;;;;;;;18.23;11.32;;;;;;;;;;5092533;28;20047;-74
2021/01/17 03:28:25;;;;;;;18.73;11.55;;;;;;;;;;5092206;28;20040;-73
2021/01/17 03:30:50;;;;;;;17.02;11.25;;;;;;;;;;5092206;28;20036;-74
2021/01/17 03:33:16;;;;;;;17.83;11.60;;;;;;;;;;5092483;28;20378;-74
2021/01/17 03:35:41;;;;;;;16.73;11.02;;;;;;;;;;5093341;28;20497;-73
2021/01/17 03:38:07;;;;;;;15.23;10.23;;;;;;;;;;5093391;28;20081;-73
2021/01/17 03:40:32;;;;;;;17.20;11.30;;;;;;;;;;5093220;28;20401;-73
2021/01/17 03:42:58;;;;;;;20.88;13.00;;;;;;;;;;5092884;28;20039;-73
2021/01/17 03:45:23;;;;;;;18.92;11.90;;;;;;;;;;5092938;28;20040;-73
2021/01/17 03:47:49;;;;;;;18.73;12.48;;;;;;;;;;5093040;28;20036;-73
2021/01/17 03:50:15;;;;;;;19.52;12.45;;;;;;;;;;5093179;28;20090;-73
2021/01/17 03:52:40;;;;;;;19.92;12.07;;;;;;;;;;5093334;28;20139;-73
2021/01/17 03:55:06;;;;;;;24.95;13.95;;;;;;;;;;5092716;28;20042;-73
2021/01/17 03:57:31;;;;;;;18.35;13.18;;;;;;;;;;5092954;28;20504;-73
2021/01/17 03:59:57;;;;;;;22.38;12.60;;;;;;;;;;5093062;28;20111;-74
2021/01/17 04:02:22;;;;;;;25.00;13.38;;;;;;;;;;5094959;28;20028;-73
2021/01/17 04:04:47;;;;;;;21.92;13.48;;;;;;;;;;5095733;28;20458;-73
2021/01/17 04:07:13;;;;;;;23.23;12.90;;;;;;;;;;5096839;28;20032;-73
2021/01/17 04:09:38;;;;;;;21.65;12.48;;;;;;;;;;5096750;28;20040;-73
2021/01/17 04:12:04;;;;;;;21.20;13.02;;;;;;;;;;5096714;28;20085;-74
2021/01/17 04:14:29;;;;;;;22.10;13.13;;;;;;;;;;5095193;28;20123;-74
2021/01/17 04:16:55;;;;;;;21.67;14.23;;;;;;;;;;5096321;28;20059;-73
2021/01/17 04:19:20;;;;;;;21.85;14.40;;;;;;;;;;5096857;28;20028;-73
2021/01/17 04:21:46;;;;;;;20.30;13.80;;;;;;;;;;5096645;28;20126;-74
2021/01/17 04:24:12;;;;;;;22.08;13.52;;;;;;;;;;5096753;28;20039;-73
2021/01/17 04:26:38;;;;;;;25.63;14.73;;;;;;;;;;5096585;28;20386;-74
2021/01/17 04:29:04;;;;;;;22.13;14.13;;;;;;;;;;5096001;28;20492;-74
2021/01/17 04:31:43;;;;;;;25.15;15.52;;;;;;;;;;5096326;28;20374;-73
2021/01/17 04:34:09;;;;;;;23.77;14.10;;;;;;;;;;5096314;28;20040;-74
2021/01/17 04:36:35;;;;;;;23.95;15.13;;;;;;;;;;5096139;28;20671;-73
2021/01/17 04:39:00;;;;;;;24.58;15.25;;;;;;;;;;5096381;28;20036;-73
2021/01/17 04:41:28;;;;;;;27.00;16.60;;;;;;;;;;5096138;28;20043;-73
2021/01/17 04:43:58;;;;;;;24.15;15.88;;;;;;;;;;5095497;28;20406;-73
2021/01/17 04:46:29;;;;;;;28.67;16.27;;;;;;;;;;5096125;28;20493;-73
2021/01/17 04:49:00;;;;;;;24.40;16.15;;;;;;;;;;5096240;28;20040;-73
2021/01/17 04:51:27;;;;;;;25.33;16.08;;;;;;;;;;5095993;28;20441;-73
2021/01/17 04:53:53;;;;;;;24.65;16.33;;;;;;;;;;5095947;28;20044;-74
2021/01/17 04:56:24;;;;;;;26.17;15.38;;;;;;;;;;5096121;28;20047;-73
2021/01/17 04:59:11;;;;;;;26.42;17.05;;;;;;;;;;5095793;28;20036;-73
2021/01/17 05:01:48;;;;;;;34.55;20.75;;;;;;;;;;5095864;28;20040;-73
2021/01/17 05:04:43;;;;;;;30.10;17.92;;;;;;;;;;5095841;28;20059;-73
2021/01/17 05:07:24;;;;;;;33.03;17.63;;;;;;;;;;5095820;28;20036;-73
2021/01/17 05:10:11;;;;;;;32.45;18.15;;;;;;;;;;5095663;28;20481;-73
2021/01/17 05:12:52;;;;;;;30.27;18.48;;;;;;;;;;5094737;28;20083;-73
2021/01/17 05:15:23;;;;;;;29.95;18.75;;;;;;;;;;5095046;28;20046;-73
2021/01/17 05:17:54;;;;;;;32.38;19.83;;;;;;;;;;5095659;28;20032;-73
2021/01/17 05:20:21;;;;;;;30.13;19.02;;;;;;;;;;5095551;28;20038;-73
2021/01/17 05:22:47;;;;;;;29.67;19.50;;;;;;;;;;5095666;28;20036;-73
2021/01/17 05:25:12;;;;;;;33.08;19.20;;;;;;;;;;5095355;28;20032;-73
2021/01/17 05:27:38;;;;;;;35.05;20.40;;;;;;;;;;5095071;28;20366;-74
2021/01/17 05:30:06;;;;;;;31.35;19.02;;;;;;;;;;5095262;28;20117;-73
2021/01/17 05:32:31;;;;;;;28.63;18.83;;;;;;;;;;5095193;28;20043;-73
2021/01/17 05:34:57;;;;;;;28.95;18.52;;;;;;;;;;5095063;28;20389;-73
2021/01/17 05:37:22;;;;;;;33.30;18.40;;;;;;;;;;5094834;28;20024;-73
2021/01/17 05:40:03;;;;;;;32.70;20.30;;;;;;;;;;5095148;28;20036;-74
2021/01/17 05:42:31;;;;;;;30.50;17.95;;;;;;;;;;5094831;28;20485;-73
2021/01/17 05:45:22;;;;;;;29.90;18.73;;;;;;;;;;5094599;28;20104;-73
2021/01/17 05:47:58;;;;;;;30.65;19.50;;;;;;;;;;5093836;28;20040;-73
2021/01/17 05:50:25;;;;;;;35.83;20.05;;;;;;;;;;5094777;28;20031;-74
2021/01/17 05:52:58;;;;;;;38.83;22.10;;;;;;;;;;5094587;28;20059;-73
2021/01/17 05:55:36;;;;;;;38.45;21.45;;;;;;;;;;5094956;28;20031;-73
2021/01/17 05:58:24;;;;;;;36.10;20.25;;;;;;;;;;5094255;28;20550;-73
2021/01/17 06:00:55;;;;;;;34.60;20.42;;;;;;;;;;5094650;28;20040;-74
2021/01/17 06:03:33;;;;;;;32.28;19.80;;;;;;;;;;5094659;28;20035;-73
2021/01/17 06:06:05;;;;;;;30.52;18.63;;;;;;;;;;5094619;28;20168;-73
2021/01/17 06:08:31;;;;;;;31.88;19.13;;;;;;;;;;5094931;28;20378;-73
2021/01/17 06:11:10;;;;;;;32.42;20.23;;;;;;;;;;5094130;28;20131;-74
2021/01/17 06:13:37;;;;;;;31.88;18.80;;;;;;;;;;5093921;28;20040;-73
2021/01/17 06:16:21;;;;;;;33.33;20.17;;;;;;;;;;5094600;28;20115;-73
2021/01/17 06:18:53;;;;;;;32.25;18.92;;;;;;;;;;5094287;28;20043;-73
2021/01/17 06:21:18;;;;;;;30.55;19.00;;;;;;;;;;5094208;28;20423;-74
2021/01/17 06:23:52;;;;;;;33.55;19.75;;;;;;;;;;5094262;28;20040;-74
2021/01/17 06:26:23;;;;;;;29.48;18.52;;;;;;;;;;5094108;28;20123;-73
2021/01/17 06:28:49;;;;;;;28.17;18.08;;;;;;;;;;5093702;28;20038;-73
2021/01/17 06:31:20;;;;;;;34.88;19.95;;;;;;;;;;5093889;28;20028;-73
2021/01/17 06:33:48;;;;;;;31.98;19.08;;;;;;;;;;5094237;28;20125;-73
2021/01/17 06:36:15;;;;;;;33.70;19.95;;;;;;;;;;5092850;28;20028;-73
2021/01/17 06:38:43;;;;;;;36.60;21.45;;;;;;;;;;5093940;28;20047;-73
2021/01/17 06:41:09;;;;;;;35.00;20.15;;;;;;;;;;5093692;28;20023;-73
2021/01/17 06:43:40;;;;;;;33.38;20.67;;;;;;;;;;5093807;28;20111;-73
2021/01/17 06:46:05;;;;;;;33.40;19.83;;;;;;;;;;5093960;28;20527;-73
2021/01/17 06:48:31;;;;;;;31.50;19.25;;;;;;;;;;5094061;28;20119;-73
2021/01/17 06:51:19;;;;;;;35.38;21.15;;;;;;;;;;5093603;28;20040;-74
2021/01/17 06:53:52;;;;;;;32.92;18.98;;;;;;;;;;5093691;28;20501;-74
2021/01/17 06:56:19;;;;;;;33.20;21.08;;;;;;;;;;5093734;28;20043;-73
2021/01/17 06:58:47;;;;;;;34.10;20.65;;;;;;;;;;5093548;28;20089;-73
2021/01/17 07:01:16;;;;;;;34.38;20.63;;;;;;;;;;5093519;28;20516;-73
2021/01/17 07:04:03;;;;;;;30.80;19.55;;;;;;;;;;5092343;28;20462;-73
2021/01/17 07:07:05;;;;;;;34.22;20.67;;;;;;;;;;5092462;28;20036;-73
2021/01/17 07:09:47;;;;;;;36.60;20.88;;;;;;;;;;5093419;28;20469;-73
2021/01/17 07:12:51;;;;;;;32.65;20.75;;;;;;;;;;5093181;28;20051;-73
2021/01/17 07:15:26;;;;;;;35.95;19.40;;;;;;;;;;5092507;28;20489;-73
2021/01/17 07:18:11;;;;;;;31.55;18.75;;;;;;;;;;5092636;28;20462;-73
2021/01/17 07:20:38;;;;;;;34.92;20.73;;;;;;;;;;5092631;28;20484;-72
2021/01/17 07:23:06;;;;;;;32.10;19.92;;;;;;;;;;5092498;28;20044;-74
2021/01/17 07:25:33;;;;;;;32.38;19.42;;;;;;;;;;5091631;28;20119;-78
2021/01/17 07:28:06;;;;;;;31.80;20.13;;;;;;;;;;5092587;28;20665;-76
2021/01/17 07:30:54;;;;;;;51.38;30.98;;;;;;;;;;5092845;28;20032;-75
2021/01/17 07:33:27;;;;;;;40.58;23.13;;;;;;;;;;5092856;28;20040;-75
2021/01/17 07:35:54;;;;;;;37.90;22.40;;;;;;;;;;5093162;28;20040;-74
2021/01/17 07:38:31;;;;;;;32.28;20.13;;;;;;;;;;5097028;28;20039;-74
2021/01/17 07:40:59;;;;;;;32.85;20.08;;;;;;;;;;5097565;28;20122;-76
2021/01/17 07:43:31;;;;;;;35.47;21.75;;;;;;;;;;5096980;28;20024;-77
2021/01/17 07:46:01;;;;;;;33.75;21.02;;;;;;;;;;5097055;28;20059;-76
2021/01/17 07:48:27;;;;;;;30.80;19.45;;;;;;;;;;5078874;28;20061;-75
2021/01/17 07:50:55;;;;;;;34.25;20.63;;;;;;;;;;5097151;28;20035;-75
2021/01/17 07:53:36;;;;;;;31.50;19.45;;;;;;;;;;5096755;28;20036;-80
2021/01/17 07:56:13;;;;;;;34.13;20.00;;;;;;;;;;5097797;28;20466;-74
2021/01/17 07:58:49;;;;;;;32.90;20.13;;;;;;;;;;5096926;28;20379;-76
2021/01/17 08:01:34;;;;;;;32.38;20.80;;;;;;;;;;5097074;28;20405;-77
2021/01/17 08:04:02;;;;;;;33.65;20.30;;;;;;;;;;5095092;28;20058;-77
2021/01/17 08:06:36;;;;;;;36.50;21.75;;;;;;;;;;5095848;28;20055;-77
2021/01/17 08:09:07;;;;;;;35.58;22.50;;;;;;;;;;5095994;28;20028;-77
2021/01/17 08:11:49;;;;;;;33.22;21.83;;;;;;;;;;5094779;28;20059;-77
2021/01/17 08:14:34;;;;;;;35.53;20.75;;;;;;;;;;5096232;28;20036;-78
2021/01/17 08:16:59;;;;;;;37.88;21.17;;;;;;;;;;5096362;28;20070;-76
2021/01/17 08:19:58;;;;;;;38.95;21.63;;;;;;;;;;5095449;28;20032;-76
2021/01/17 08:22:23;;;;;;;42.35;24.90;;;;;;;;;;5085817;28;20039;-76
2021/01/17 08:24:58;;;;;;;39.58;22.35;;;;;;;;;;5096293;28;20519;-75
2021/01/17 08:27:34;;;;;;;38.38;22.52;;;;;;;;;;5096522;28;20039;-74
2021/01/17 08:30:02;;;;;;;36.17;22.27;;;;;;;;;;5096265;28;20032;-76
2021/01/17 08:32:35;;;;;;;35.55;20.95;;;;;;;;;;5096426;28;20082;-77
2021/01/17 08:35:24;;;;;;;33.65;20.58;;;;;;;;;;5096516;28;20089;-76
2021/01/17 08:37:57;;;;;;;36.22;20.95;;;;;;;;;;5096496;28;20039;-75
2021/01/17 08:40:28;;;;;;;32.63;21.05;;;;;;;;;;5096375;28;20043;-74
2021/01/17 08:43:03;;;;;;;40.45;23.38;;;;;;;;;;5096257;28;20043;-74
2021/01/17 08:45:28;;;;;;;35.65;20.85;;;;;;;;;;5095943;28;20105;-74
2021/01/17 08:48:00;;;;;;;33.47;21.42;;;;;;;;;;5095737;28;20440;-75
2021/01/17 08:50:36;;;;;;;32.15;20.10;;;;;;;;;;5096229;28;20040;-76
2021/01/17 08:53:15;;;;;;;34.08;21.10;;;;;;;;;;5095650;28;20142;-73
2021/01/17 08:55:47;;;;;;;40.97;22.08;;;;;;;;;;5095934;28;20040;-72
2021/01/17 08:58:25;;;;;;;32.80;19.90;;;;;;;;;;5096164;28;20036;-73
2021/01/17 09:00:51;;;;;;;32.08;20.88;;;;;;;;;;5095591;28;20032;-72
2021/01/17 09:03:33;;;;;;;34.75;20.25;;;;;;;;;;5095831;28;20082;-73
2021/01/17 09:06:02;;;;;;;33.70;20.67;;;;;;;;;;5095520;28;20111;-73
2021/01/17 09:08:30;;;;;;;38.17;22.70;;;;;;;;;;5095738;28;20032;-74
2021/01/17 09:10:56;;;;;;;38.42;20.65;;;;;;;;;;5095935;28;20042;-76
2021/01/17 09:13:29;;;;;;;37.13;21.70;;;;;;;;;;5095433;28;20032;-77
2021/01/17 09:16:00;;;;;;;36.50;21.98;;;;;;;;;;5094762;28;20036;-75
2021/01/17 09:18:28;;;;;;;40.20;22.98;;;;;;;;;;5095699;28;20067;-74
2021/01/17 09:20:55;;;;;;;41.95;24.00;;;;;;;;;;5095389;28;20036;-75
2021/01/17 09:23:22;;;;;;;34.40;21.05;;;;;;;;;;5095248;28;20105;-75
2021/01/17 09:25:54;;;;;;;35.65;20.52;;;;;;;;;;5094095;28;20024;-75
2021/01/17 09:28:19;;;;;;;37.25;21.65;;;;;;;;;;5093778;28;20039;-75
2021/01/17 09:30:49;;;;;;;38.65;22.92;;;;;;;;;;5094168;28;20477;-74
2021/01/17 09:33:15;;;;;;;37.60;21.85;;;;;;;;;;5094647;28;20039;-76
2021/01/17 09:35:42;;;;;;;35.10;21.38;;;;;;;;;;5094593;28;20398;-74
2021/01/17 09:38:12;;;;;;;33.70;21.08;;;;;;;;;;5087578;28;20374;-75
2021/01/17 09:40:42;;;;;;;37.75;21.63;;;;;;;;;;5083201;28;20040;-75
2021/01/17 09:43:08;;;;;;;33.60;20.45;;;;;;;;;;5088550;28;20028;-73
2021/01/17 09:45:34;;;;;;;31.35;20.40;;;;;;;;;;5090220;28;20059;-72
2021/01/17 09:48:00;;;;;;;30.52;19.30;;;;;;;;;;5075342;28;20050;-75
2021/01/17 09:50:30;;;;;;;29.27;18.83;;;;;;;;;;5074439;28;20467;-74
2021/01/17 09:53:04;;;;;;;31.67;20.38;;;;;;;;;;5074689;28;20594;-76
2021/01/17 09:55:30;;;;;;;31.02;19.75;;;;;;;;;;5074425;28;20131;-74
2021/01/17 09:57:55;;;;;;;30.55;19.38;;;;;;;;;;5074502;28;20064;-74
2021/01/17 10:00:22;;;;;;;30.65;19.83;;;;;;;;;;5055652;28;20025;-74
2021/01/17 10:02:48;;;;;;;32.30;20.30;;;;;;;;;;5074407;28;20082;-73
2021/01/17 10:05:31;;;;;;;32.67;20.92;;;;;;;;;;5074418;28;20386;-74
2021/01/17 10:08:08;;;;;;;38.10;24.05;;;;;;;;;;5074650;28;20536;-73
2021/01/17 10:10:35;;;;;;;58.15;29.17;;;;;;;;;;5076043;28;20570;-71
2021/01/17 10:13:01;;;;;;;73.10;32.22;;;;;;;;;;5094463;28;20085;-71
2021/01/17 10:15:26;;;;;;;77.55;33.47;;;;;;;;;;5094192;28;20039;-71
2021/01/17 10:17:53;;;;;;;79.57;30.98;;;;;;;;;;5094265;28;20024;-73
2021/01/17 10:20:33;;;;;;;52.92;26.35;;;;;;;;;;5094217;28;20040;-73
2021/01/17 10:23:03;;;;;;;50.72;27.08;;;;;;;;;;5094440;28;20036;-72
2021/01/17 10:25:30;;;;;;;35.20;22.10;;;;;;;;;;5094324;28;20465;-73
2021/01/17 10:28:06;;;;;;;31.58;20.17;;;;;;;;;;5094113;28;20115;-73
2021/01/17 10:30:34;;;;;;;34.17;20.73;;;;;;;;;;5093622;28;20537;-73
2021/01/17 10:33:05;;;;;;;35.35;20.77;;;;;;;;;;5093907;28;20123;-73
2021/01/17 10:35:32;;;;;;;33.08;20.60;;;;;;;;;;5093889;28;20039;-72
2021/01/17 10:37:58;;;;;;;37.97;22.42;;;;;;;;;;5094107;28;20039;-73
2021/01/17 10:40:27;;;;;;;33.60;20.80;;;;;;;;;;5093941;28;20035;-73
2021/01/17 10:42:54;;;;;;;36.40;21.38;;;;;;;;;;5094129;28;20404;-75
2021/01/17 10:45:20;;;;;;;33.35;20.20;;;;;;;;;;5092221;28;20063;-72
2021/01/17 10:47:55;;;;;;;28.20;19.55;;;;;;;;;;5094226;28;20400;-72
2021/01/17 10:50:21;;;;;;;34.08;21.88;;;;;;;;;;5092682;28;20042;-76
2021/01/17 10:53:13;;;;;;;35.08;20.00;;;;;;;;;;5094028;28;20378;-78
2021/01/17 10:55:40;;;;;;;31.08;20.80;;;;;;;;;;5094028;28;20028;-75
2021/01/17 10:58:07;;;;;;;30.80;19.08;;;;;;;;;;5092908;28;20595;-75
2021/01/17 11:00:33;;;;;;;33.63;20.70;;;;;;;;;;5093857;28;20054;-77
2021/01/17 11:03:06;;;;;;;31.77;20.92;;;;;;;;;;5093794;28;20032;-75
2021/01/17 11:05:33;;;;;;;33.75;21.65;;;;;;;;;;5093755;28;20054;-75
2021/01/17 11:07:59;;;;;;;36.10;22.27;;;;;;;;;;5093548;28;20538;-75
2021/01/17 11:10:25;;;;;;;34.40;20.98;;;;;;;;;;5093395;28;20152;-75
2021/01/17 11:12:51;;;;;;;33.80;21.50;;;;;;;;;;5093566;28;20045;-74
2021/01/17 11:15:19;;;;;;;33.03;21.05;;;;;;;;;;5093060;28;20514;-75
2021/01/17 11:17:58;;;;;;;31.58;20.23;;;;;;;;;;5093455;28;20047;-76
2021/01/17 11:20:28;;;;;;;31.75;20.20;;;;;;;;;;5093016;28;20027;-71
2021/01/17 11:23:03;;;;;;;34.58;21.48;;;;;;;;;;5093244;28;20047;-72
2021/01/17 11:25:30;;;;;;;35.42;21.27;;;;;;;;;;5093477;28;20151;-72
2021/01/17 11:27:57;;;;;;;36.72;21.90;;;;;;;;;;5093439;28;20063;-72
2021/01/17 11:30:28;;;;;;;30.95;20.13;;;;;;;;;;5092949;28;20057;-72
2021/01/17 11:33:07;;;;;;;38.42;21.45;;;;;;;;;;5091994;28;20469;-72
2021/01/17 11:35:32;;;;;;;35.75;21.40;;;;;;;;;;5085395;28;20131;-72
2021/01/17 11:37:58;;;;;;;37.83;21.40;;;;;;;;;;5078398;28;20119;-74
2021/01/17 11:40:23;;;;;;;35.47;21.63;;;;;;;;;;5085024;28;20028;-71
2021/01/17 11:42:49;;;;;;;36.83;22.58;;;;;;;;;;5079663;28;20089;-74
2021/01/17 11:45:21;;;;;;;34.17;22.08;;;;;;;;;;5094874;28;20139;-82
2021/01/17 11:47:57;;;;;;;33.13;21.52;;;;;;;;;;5092547;28;20043;-85
2021/01/17 11:50:24;;;;;;;32.15;20.70;;;;;;;;;;5093465;28;20043;-84
2021/01/17 11:52:57;;;;;;;35.13;20.20;;;;;;;;;;5066308;28;20080;-81
2021/01/17 11:55:23;;;;;;;37.08;22.98;;;;;;;;;;5085145;28;20406;-82
2021/01/17 11:57:49;;;;;;;38.42;25.00;;;;;;;;;;5056327;28;20033;-79
2021/01/17 12:00:15;;;;;;;34.25;22.17;;;;;;;;;;5072983;28;20129;-75
2021/01/17 12:02:41;;;;;;;34.75;23.17;;;;;;;;;;5084503;28;20032;-73
2021/01/17 12:05:07;;;;;;;33.67;22.85;;;;;;;;;;5083815;28;20121;-71
2021/01/17 12:07:33;;;;;;;34.03;20.48;;;;;;;;;;5092312;28;20383;-71
2021/01/17 12:10:06;;;;;;;34.80;22.77;;;;;;;;;;5092745;28;20130;-71
2021/01/17 12:12:36;;;;;;;30.27;19.67;;;;;;;;;;5090354;28;20036;-71
2021/01/17 12:15:07;;;;;;;34.83;20.98;;;;;;;;;;5093004;28;20036;-71
2021/01/17 12:17:32;;;;;;;36.45;22.50;;;;;;;;;;5092941;28;20043;-71
2021/01/17 12:19:57;;;;;;;31.42;20.63;;;;;;;;;;5091643;28;20040;-70
2021/01/17 12:22:23;;;;;;;31.85;20.67;;;;;;;;;;5093231;28;20036;-71
2021/01/17 12:24:50;;;;;;;35.55;20.13;;;;;;;;;;5096598;28;20040;-71
2021/01/17 12:27:15;;;;;;;28.88;19.35;;;;;;;;;;5096501;28;20476;-71
2021/01/17 12:29:41;;;;;;;33.92;20.25;;;;;;;;;;5096599;28;20036;-70
2021/01/17 12:32:07;;;;;;;31.63;20.15;;;;;;;;;;5096445;28;20036;-71
2021/01/17 12:34:33;;;;;;;35.60;21.63;;;;;;;;;;5077661;28;20434;-70
2021/01/17 12:36:58;;;;;;;38.70;21.23;;;;;;;;;;5096363;28;20135;-71
2021/01/17 12:39:24;;;;;;;32.17;21.02;;;;;;;;;;5096147;28;20036;-71
2021/01/17 12:41:51;;;;;;;37.58;22.60;;;;;;;;;;5095500;28;20115;-71
2021/01/17 12:44:19;;;;;;;31.23;20.40;;;;;;;;;;5095882;28;20097;-71
2021/01/17 12:46:46;;;;;;;32.22;21.25;;;;;;;;;;5096268;28;20032;-71
2021/01/17 12:49:13;;;;;;;31.88;20.25;;;;;;;;;;5094926;28;20031;-71
2021/01/17 12:51:38;;;;;;;32.97;21.73;;;;;;;;;;5094940;28;20075;-71
2021/01/17 12:54:04;;;;;;;34.33;22.05;;;;;;;;;;5096095;28;20066;-71
2021/01/17 12:56:29;;;;;;;36.92;22.75;;;;;;;;;;5094696;28;20153;-71
2021/01/17 12:58:55;;;;;;;37.08;22.10;;;;;;;;;;5094771;28;20034;-71
2021/01/17 13:01:20;;;;;;;35.60;22.38;;;;;;;;;;5094883;28;20351;-71
2021/01/17 13:03:46;;;;;;;36.83;21.90;;;;;;;;;;5095996;28;20040;-71
2021/01/17 13:06:12;;;;;;;30.98;19.98;;;;;;;;;;5095143;28;20067;-71
2021/01/17 13:08:42;;;;;;;32.85;21.15;;;;;;;;;;5094633;28;20119;-71
2021/01/17 13:11:10;;;;;;;34.58;21.30;;;;;;;;;;5095643;28;20036;-71
2021/01/17 13:13:36;;;;;;;37.75;22.02;;;;;;;;;;5094578;28;20051;-71
2021/01/17 13:16:05;;;;;;;35.63;21.38;;;;;;;;;;5095559;28;20028;-71
2021/01/17 13:18:31;;;;;;;34.28;22.02;;;;;;;;;;5094449;28;20067;-71
2021/01/17 13:20:59;;;;;;;40.83;25.52;;;;;;;;;;5095473;28;20067;-71
2021/01/17 13:23:25;;;;;;;36.78;23.55;;;;;;;;;;5094630;28;20020;-71
2021/01/17 13:25:51;;;;;;;34.88;21.50;;;;;;;;;;5093934;28;20572;-71
2021/01/17 13:28:16;;;;;;;34.88;22.05;;;;;;;;;;5095442;28;20085;-71
2021/01/17 13:30:45;;;;;;;40.00;23.60;;;;;;;;;;5095272;28;20123;-71
2021/01/17 13:33:14;;;;;;;37.03;22.20;;;;;;;;;;5095130;28;20442;-71
2021/01/17 13:35:44;;;;;;;37.53;23.42;;;;;;;;;;5094262;28;20462;-71
2021/01/17 13:38:11;;;;;;;37.15;22.88;;;;;;;;;;5095154;28;20039;-71
2021/01/17 13:40:37;;;;;;;36.63;23.23;;;;;;;;;;5094955;28;20490;-71
2021/01/17 13:43:03;;;;;;;40.70;23.55;;;;;;;;;;5094024;28;20020;-71
2021/01/17 13:45:29;;;;;;;33.47;20.73;;;;;;;;;;5094736;28;20066;-71
2021/01/17 13:47:54;;;;;;;33.97;20.83;;;;;;;;;;5094897;28;20046;-72
2021/01/17 13:50:19;;;;;;;33.30;21.10;;;;;;;;;;5094822;28;20040;-71
2021/01/17 13:52:46;;;;;;;36.47;22.42;;;;;;;;;;5092993;28;20028;-71
2021/01/17 13:55:12;;;;;;;32.83;20.75;;;;;;;;;;5094858;28;20453;-72
2021/01/17 13:57:40;;;;;;;34.33;20.77;;;;;;;;;;5092863;28;20484;-72
2021/01/17 14:00:07;;;;;;;35.88;22.13;;;;;;;;;;5094439;28;20028;-73
2021/01/17 14:02:33;;;;;;;34.08;21.48;;;;;;;;;;5093846;28;20032;-75
2021/01/17 14:04:59;;;;;;;37.15;23.05;;;;;;;;;;5093142;28;20051;-73
2021/01/17 14:07:25;;;;;;;38.67;20.67;;;;;;;;;;5092696;28;20089;-72
2021/01/17 14:09:50;;;;;;;31.13;20.13;;;;;;;;;;5093704;28;20145;-73
2021/01/17 14:12:16;;;;;;;34.00;20.70;;;;;;;;;;5094195;28;20131;-71
2021/01/17 14:14:41;;;;;;;33.65;20.73;;;;;;;;;;5094446;28;20035;-72
2021/01/17 14:17:07;;;;;;;32.67;21.08;;;;;;;;;;5093669;28;20040;-72
2021/01/17 14:19:33;;;;;;;30.05;19.48;;;;;;;;;;5094021;28;20043;-72
2021/01/17 14:21:59;;;;;;;37.90;22.17;;;;;;;;;;5094155;28;20390;-72
2021/01/17 14:24:24;;;;;;;34.83;21.00;;;;;;;;;;5092932;28;20039;-72
2021/01/17 14:26:50;;;;;;;32.10;19.88;;;;;;;;;;5092955;28;20036;-72
2021/01/17 14:29:16;;;;;;;35.15;21.52;;;;;;;;;;5093216;28;20038;-72
2021/01/17 14:31:47;;;;;;;33.47;20.90;;;;;;;;;;5094219;28;20040;-72